Time;durP1;ratioP1;P1;durP2;ratioP2;P2;SDS_P1;SDS_P2;PMS_P1;PMS_P2;Temp;Humidity;BMP_temperature;BMP_pressure;BME280_temperature;BME280_humidity;BME280_pressure;Samples;Min_cycle;Max_cycle;Signal;HPM_P1;HPM_P2
2021/05/17 00:00:52;;;;;;;3.53;0.70;;;14.20;69.00;;;;;;5032950;28;20034;-83
2021/05/17 00:03:19;;;;;;;2.35;0.05;;;14.20;69.10;;;;;;5013375;28;20030;-83
2021/05/17 00:05:45;;;;;;;0.95;0.22;;;14.20;69.10;;;;;;5003796;28;20030;-82
2021/05/17 00:08:12;;;;;;;1.38;0.10;;;14.20;69.10;;;;;;4978627;28;20042;-83
2021/05/17 00:10:38;;;;;;;0.43;0.32;;;14.20;69.20;;;;;;5005243;28;20066;-82
2021/05/17 00:13:04;;;;;;;3.42;0.20;;;14.20;69.20;;;;;;5012596;28;20398;-82
2021/05/17 00:15:30;;;;;;;1.55;0.77;;;14.20;69.30;;;;;;4997049;28;20394;-83
2021/05/17 00:17:56;;;;;;;6.22;0.13;;;14.10;69.20;;;;;;5007289;28;20041;-83
2021/05/17 00:20:24;;;;;;;0.00;0.00;;;14.10;69.30;;;;;;5001852;28;20030;-84
2021/05/17 00:22:50;;;;;;;5.57;0.28;;;14.20;69.40;;;;;;5017454;28;20430;-83
2021/05/17 00:25:22;;;;;;;0.70;0.47;;;14.10;69.50;;;;;;5041627;28;20034;-84
2021/05/17 00:27:52;;;;;;;0.50;0.17;;;14.10;69.60;;;;;;4994995;28;20045;-84
2021/05/17 00:30:20;;;;;;;1.63;0.22;;;14.10;69.80;;;;;;5006653;28;20038;-84
2021/05/17 00:32:46;;;;;;;0.10;0.00;;;14.00;69.80;;;;;;5032372;28;20391;-82
2021/05/17 00:35:13;;;;;;;0.00;0.00;;;14.00;69.80;;;;;;5020979;28;20360;-82
2021/05/17 00:37:39;;;;;;;1.30;0.22;;;14.00;69.90;;;;;;4993344;28;20488;-83
2021/05/17 00:40:06;;;;;;;5.95;0.43;;;14.00;70.00;;;;;;5008779;28;20056;-83
2021/05/17 00:42:33;;;;;;;0.32;0.25;;;14.00;70.00;;;;;;5005572;28;20034;-83
2021/05/17 00:44:59;;;;;;;3.75;0.47;;;13.90;70.10;;;;;;5022582;28;20041;-83
2021/05/17 00:47:25;;;;;;;5.28;0.45;;;13.90;70.10;;;;;;5022337;28;20045;-83
2021/05/17 00:49:51;;;;;;;0.00;0.00;;;13.90;70.20;;;;;;5003912;28;20399;-83
2021/05/17 00:52:18;;;;;;;6.75;0.20;;;13.90;70.20;;;;;;5008794;28;20045;-83
2021/05/17 00:54:44;;;;;;;5.03;0.60;;;13.90;70.30;;;;;;5006245;28;20033;-83
2021/05/17 00:57:11;;;;;;;2.10;0.17;;;13.90;70.40;;;;;;5042635;28;20034;-83
2021/05/17 00:59:38;;;;;;;6.35;0.20;;;13.80;70.30;;;;;;5006086;28;20072;-82
2021/05/17 01:02:04;;;;;;;0.68;0.00;;;13.80;70.30;;;;;;5003287;28;20061;-82
2021/05/17 01:04:30;;;;;;;0.00;0.00;;;13.80;70.40;;;;;;5007898;28;20039;-82
2021/05/17 01:06:58;;;;;;;1.58;0.05;;;13.90;70.50;;;;;;4993685;28;20041;-82
2021/05/17 01:09:26;;;;;;;0.75;0.52;;;13.80;70.50;;;;;;5023319;28;20036;-83
2021/05/17 01:11:55;;;;;;;1.35;0.28;;;13.80;70.50;;;;;;5006136;28;20046;-82
2021/05/17 01:14:22;;;;;;;0.35;0.17;;;13.90;70.60;;;;;;5004724;28;20046;-83
2021/05/17 01:16:48;;;;;;;0.22;0.20;;;13.80;70.50;;;;;;5002626;28;20403;-82
2021/05/17 01:19:14;;;;;;;0.65;0.10;;;13.80;70.60;;;;;;4995606;28;20034;-83
2021/05/17 01:21:41;;;;;;;2.45;0.52;;;13.80;70.70;;;;;;5029733;28;20479;-82
2021/05/17 01:24:08;;;;;;;2.75;0.65;;;13.80;70.70;;;;;;5040230;28;20057;-82
2021/05/17 01:26:35;;;;;;;0.00;0.00;;;13.80;70.70;;;;;;5026379;28;20037;-82
2021/05/17 01:29:06;;;;;;;0.57;0.00;;;13.80;70.70;;;;;;5013442;28;20033;-83
2021/05/17 01:31:33;;;;;;;0.22;0.17;;;13.80;70.80;;;;;;5010481;28;20039;-82
2021/05/17 01:34:00;;;;;;;0.93;0.17;;;13.80;70.80;;;;;;5012417;28;20032;-82
2021/05/17 01:36:26;;;;;;;3.97;0.55;;;13.80;70.70;;;;;;5005478;28;20042;-82
2021/05/17 01:38:53;;;;;;;1.10;0.70;;;13.80;70.70;;;;;;5019996;28;20038;-82
2021/05/17 01:41:21;;;;;;;1.77;0.45;;;13.80;70.70;;;;;;5009012;28;20038;-81
2021/05/17 01:43:49;;;;;;;2.20;0.28;;;13.80;70.70;;;;;;5011720;28;20501;-82
2021/05/17 01:46:17;;;;;;;1.67;0.35;;;13.80;70.70;;;;;;5006086;28;20030;-82
2021/05/17 01:48:43;;;;;;;1.35;0.47;;;13.80;70.80;;;;;;5044109;28;20033;-82
2021/05/17 01:51:11;;;;;;;0.95;0.00;;;13.80;70.80;;;;;;5025742;28;20046;-81
2021/05/17 01:53:37;;;;;;;2.40;0.52;;;13.80;70.90;;;;;;5020752;28;20046;-81
2021/05/17 01:56:05;;;;;;;1.60;0.30;;;13.80;70.90;;;;;;5008445;28;20027;-81
2021/05/17 01:58:31;;;;;;;7.80;0.50;;;13.80;70.90;;;;;;4998488;28;20383;-82
2021/05/17 02:00:58;;;;;;;0.85;0.05;;;13.70;70.80;;;;;;5010392;28;20034;-81
2021/05/17 02:03:24;;;;;;;2.00;0.20;;;13.70;70.90;;;;;;5009009;28;20029;-82
2021/05/17 02:05:51;;;;;;;0.00;0.00;;;13.70;71.00;;;;;;5005722;28;20046;-81
2021/05/17 02:08:17;;;;;;;8.38;0.25;;;13.70;71.00;;;;;;5019298;28;20034;-81
2021/05/17 02:10:44;;;;;;;2.08;0.50;;;13.70;71.10;;;;;;5012160;28;20491;-81
2021/05/17 02:13:17;;;;;;;10.40;0.47;;;13.60;71.10;;;;;;5012935;28;20499;-82
2021/05/17 02:15:44;;;;;;;10.18;0.80;;;13.70;71.30;;;;;;5001968;28;20030;-81
2021/05/17 02:18:10;;;;;;;4.70;0.13;;;13.60;71.30;;;;;;5014819;28;20034;-82
2021/05/17 02:20:37;;;;;;;4.68;0.63;;;13.60;71.30;;;;;;4993740;28;20602;-81
2021/05/17 02:23:04;;;;;;;1.15;0.20;;;13.60;71.30;;;;;;5008251;28;20065;-81
2021/05/17 02:25:31;;;;;;;0.05;0.00;;;13.60;71.20;;;;;;4995311;28;20471;-81
2021/05/17 02:27:57;;;;;;;6.20;0.10;;;13.60;71.30;;;;;;5042592;28;20040;-81
2021/05/17 02:30:24;;;;;;;0.13;0.00;;;13.60;71.30;;;;;;5013921;28;20460;-81
2021/05/17 02:32:54;;;;;;;0.30;0.10;;;13.60;71.30;;;;;;5010157;28;20053;-81
2021/05/17 02:35:21;;;;;;;2.90;0.55;;;13.60;71.30;;;;;;5011501;28;20038;-82
2021/05/17 02:37:48;;;;;;;1.35;0.55;;;13.60;71.30;;;;;;5006908;28;20037;-81
2021/05/17 02:40:14;;;;;;;3.17;0.40;;;13.70;71.40;;;;;;5026513;28;20490;-81
2021/05/17 02:42:47;;;;;;;6.43;0.25;;;13.60;71.40;;;;;;5012350;28;20034;-81
2021/05/17 02:45:14;;;;;;;1.30;0.10;;;13.60;71.40;;;;;;5025379;28;20037;-81
2021/05/17 02:47:41;;;;;;;0.00;0.00;;;13.60;71.40;;;;;;5011194;28;20042;-81
2021/05/17 02:50:09;;;;;;;0.00;0.00;;;13.60;71.40;;;;;;5011691;28;20096;-81
2021/05/17 02:52:36;;;;;;;0.03;0.00;;;13.70;71.50;;;;;;5006391;28;20138;-81
2021/05/17 02:55:09;;;;;;;5.95;0.43;;;13.60;71.40;;;;;;5007806;28;20030;-81
2021/05/17 02:57:46;;;;;;;2.35;1.02;;;13.60;71.40;;;;;;5011407;28;20041;-81
2021/05/17 03:00:19;;;;;;;0.00;0.00;;;13.60;71.50;;;;;;5030127;28;20093;-81
2021/05/17 03:03:03;;;;;;;0.52;0.10;;;13.60;71.50;;;;;;5037034;28;20041;-81
2021/05/17 03:05:34;;;;;;;3.20;0.20;;;13.50;71.50;;;;;;5018115;28;20365;-81
2021/05/17 03:08:22;;;;;;;0.40;0.00;;;13.50;71.50;;;;;;5028226;28;20018;-81
2021/05/17 03:10:48;;;;;;;2.60;0.17;;;13.50;71.60;;;;;;5011108;28;20053;-81
2021/05/17 03:13:18;;;;;;;0.05;0.00;;;13.50;71.60;;;;;;4999539;28;20035;-81
2021/05/17 03:15:45;;;;;;;0.00;0.00;;;13.50;71.60;;;;;;5004980;28;20502;-81
2021/05/17 03:18:11;;;;;;;0.25;0.20;;;13.50;71.60;;;;;;5007932;28;20471;-81
2021/05/17 03:20:37;;;;;;;0.15;0.00;;;13.50;71.60;;;;;;5039050;28;20364;-81
2021/05/17 03:23:12;;;;;;;0.13;0.03;;;13.50;71.60;;;;;;5008797;28;20026;-81
2021/05/17 03:25:38;;;;;;;9.20;0.30;;;13.50;71.60;;;;;;5021073;28;20026;-81
2021/05/17 03:28:05;;;;;;;4.90;0.10;;;13.50;71.50;;;;;;5011282;28;20030;-82
2021/05/17 03:30:31;;;;;;;6.22;0.17;;;13.50;71.50;;;;;;5007469;28;20096;-81
2021/05/17 03:32:57;;;;;;;0.85;0.35;;;13.50;71.60;;;;;;5007747;28;20053;-81
2021/05/17 03:35:23;;;;;;;0.95;0.52;;;13.50;71.60;;;;;;5011610;28;20041;-81
2021/05/17 03:37:50;;;;;;;0.00;0.00;;;13.50;71.60;;;;;;5000116;28;20041;-81
2021/05/17 03:40:16;;;;;;;0.00;0.00;;;13.50;71.70;;;;;;5012188;28;20037;-81
2021/05/17 03:42:43;;;;;;;0.20;0.00;;;13.50;71.70;;;;;;4998438;28;20045;-81
2021/05/17 03:45:10;;;;;;;3.25;0.30;;;13.50;71.80;;;;;;5008366;28;20050;-81
2021/05/17 03:47:36;;;;;;;0.98;0.30;;;13.50;71.80;;;;;;5003108;28;20597;-83
2021/05/17 03:50:04;;;;;;;2.40;1.15;;;13.40;71.90;;;;;;5006992;28;20391;-85
2021/05/17 03:52:30;;;;;;;3.10;0.30;;;13.40;71.90;;;;;;4989396;28;20046;-82
2021/05/17 03:54:56;;;;;;;0.25;0.10;;;13.40;71.90;;;;;;5037341;28;20026;-83
2021/05/17 03:57:22;;;;;;;0.70;0.05;;;13.40;71.90;;;;;;5028543;28;20029;-80
2021/05/17 03:59:48;;;;;;;0.63;0.20;;;13.40;71.90;;;;;;5006900;28;20395;-82
2021/05/17 04:02:17;;;;;;;0.28;0.20;;;13.40;71.90;;;;;;4988485;28;20045;-84
2021/05/17 04:07:51;;;;;;;0.20;0.17;;;13.30;72.00;;;;;;5008131;28;20499;-82
2021/05/17 04:15:43;;;;;;;0.05;0.00;;;13.30;72.00;;;;;;5011054;28;20044;-83
2021/05/17 04:18:10;;;;;;;0.00;0.00;;;13.30;72.00;;;;;;4999282;28;20081;-82
2021/05/17 04:20:36;;;;;;;0.57;0.20;;;13.30;72.10;;;;;;5007747;28;20037;-82
2021/05/17 04:23:02;;;;;;;1.75;0.20;;;13.30;72.10;;;;;;4995028;28;20045;-82
2021/05/17 04:25:28;;;;;;;4.07;0.10;;;13.20;72.10;;;;;;5022733;28;20395;-83
2021/05/17 04:27:54;;;;;;;0.00;0.00;;;13.20;72.10;;;;;;5010571;28;20049;-82
2021/05/17 04:30:20;;;;;;;1.35;0.30;;;13.20;72.10;;;;;;4978725;28;20040;-83
2021/05/17 04:32:46;;;;;;;0.15;0.10;;;13.20;72.10;;;;;;5008163;28;20049;-83
2021/05/17 04:35:13;;;;;;;10.35;0.25;;;13.20;72.10;;;;;;5008578;28;20041;-83
2021/05/17 04:37:39;;;;;;;6.20;0.28;;;13.30;72.10;;;;;;5009762;28;20491;-82
2021/05/17 04:40:06;;;;;;;7.18;0.13;;;13.30;72.10;;;;;;5009867;28;20041;-82
2021/05/17 04:42:32;;;;;;;2.25;0.50;;;13.30;72.00;;;;;;5010844;28;20379;-82
2021/05/17 04:44:58;;;;;;;0.05;0.00;;;13.30;72.00;;;;;;5007063;28;20049;-83
2021/05/17 04:47:24;;;;;;;0.13;0.03;;;13.30;72.00;;;;;;5010156;28;20403;-84
2021/05/17 04:49:50;;;;;;;2.35;0.25;;;13.30;72.00;;;;;;5009408;28;20491;-82
2021/05/17 04:52:17;;;;;;;4.22;0.40;;;13.40;72.00;;;;;;5009321;28;20041;-82
2021/05/17 04:54:43;;;;;;;2.03;0.50;;;13.40;72.00;;;;;;5010060;28;20025;-82
2021/05/17 04:57:09;;;;;;;3.28;0.28;;;13.40;71.90;;;;;;5022549;28;20529;-82
2021/05/17 04:59:35;;;;;;;0.20;0.10;;;13.50;72.00;;;;;;5009961;28;20113;-83
2021/05/17 05:02:01;;;;;;;0.85;0.10;;;13.50;71.90;;;;;;4991046;28;20030;-83
2021/05/17 05:04:29;;;;;;;11.02;0.22;;;13.50;71.90;;;;;;5029131;28;20061;-81
2021/05/17 05:06:55;;;;;;;4.32;0.38;;;13.50;71.90;;;;;;5009648;28;20037;-82
2021/05/17 05:09:21;;;;;;;3.83;0.40;;;13.60;71.90;;;;;;5012585;28;20026;-83
2021/05/17 05:11:47;;;;;;;0.20;0.10;;;13.60;71.90;;;;;;5007691;28;20061;-83
2021/05/17 05:14:13;;;;;;;4.32;0.05;;;13.60;71.90;;;;;;5009228;28;20034;-83
2021/05/17 05:16:39;;;;;;;6.05;0.30;;;13.60;71.90;;;;;;5008480;28;20598;-82
2021/05/17 05:19:05;;;;;;;0.32;0.10;;;13.60;71.90;;;;;;5010482;28;20026;-83
2021/05/17 05:21:33;;;;;;;9.32;0.47;;;13.60;72.00;;;;;;5010114;28;20029;-83
2021/05/17 05:23:59;;;;;;;0.40;0.10;;;13.60;72.00;;;;;;5013764;28;20404;-83
2021/05/17 05:32:47;;;;;;;1.75;0.20;;;13.60;72.00;;;;;;4988281;28;20038;-83
2021/05/17 05:34:41;;;;;;;1.02;0.17;;;13.60;72.00;;;;;;4981424;28;20038;-83
2021/05/17 05:37:07;;;;;;;0.00;0.00;;;13.60;72.00;;;;;;4987215;28;20039;-84
2021/05/17 05:39:33;;;;;;;10.25;0.70;;;13.60;72.00;;;;;;4989864;28;20038;-83
2021/05/17 05:42:00;;;;;;;0.65;0.20;;;13.70;72.00;;;;;;4989069;28;20046;-83
2021/05/17 05:44:26;;;;;;;2.55;0.00;;;13.70;72.10;;;;;;4989334;28;20042;-83
2021/05/17 05:46:52;;;;;;;0.30;0.00;;;13.70;72.10;;;;;;4987580;28;20035;-83
2021/05/17 05:49:18;;;;;;;0.00;0.00;;;13.70;72.10;;;;;;4988531;28;20050;-84
2021/05/17 05:51:44;;;;;;;0.85;0.13;;;13.70;72.10;;;;;;4972187;28;20038;-83
2021/05/17 05:54:11;;;;;;;0.90;0.30;;;13.70;72.10;;;;;;4989983;28;20508;-83
2021/05/17 05:56:37;;;;;;;0.10;0.00;;;13.70;72.10;;;;;;4988463;28;20150;-81
2021/05/17 05:59:03;;;;;;;0.32;0.13;;;13.70;72.10;;;;;;4972223;28;20042;-83
2021/05/17 06:01:29;;;;;;;1.30;0.25;;;13.80;72.20;;;;;;4988823;28;20046;-84
2021/05/17 06:03:55;;;;;;;2.50;0.10;;;13.80;72.00;;;;;;4988210;28;20477;-83
2021/05/17 06:06:21;;;;;;;0.00;0.00;;;13.90;72.00;;;;;;4991478;28;20034;-88
2021/05/17 06:08:48;;;;;;;1.08;0.30;;;13.90;71.90;;;;;;5012482;28;20030;-84
2021/05/17 06:11:14;;;;;;;2.45;0.15;;;13.90;71.90;;;;;;4994673;28;20034;-87
2021/05/17 06:13:40;;;;;;;8.73;0.35;;;14.00;71.90;;;;;;5013157;28;20030;-83
2021/05/17 06:16:08;;;;;;;0.00;0.00;;;14.10;71.80;;;;;;5009816;28;20037;-79
2021/05/17 06:18:34;;;;;;;0.20;0.10;;;14.20;71.70;;;;;;4997301;28;20479;-79
2021/05/17 06:21:01;;;;;;;0.00;0.00;;;14.30;71.40;;;;;;5012383;28;20388;-78
2021/05/17 06:23:28;;;;;;;10.38;0.10;;;14.30;71.30;;;;;;5020256;28;20049;-79
2021/05/17 06:25:54;;;;;;;1.55;0.10;;;14.40;71.20;;;;;;5006343;28;20030;-78
2021/05/17 06:28:23;;;;;;;0.65;0.52;;;14.40;71.20;;;;;;4993178;28;20037;-78
2021/05/17 06:30:54;;;;;;;0.32;0.00;;;14.40;71.30;;;;;;5011493;28;20403;-78
2021/05/17 06:33:21;;;;;;;0.38;0.10;;;14.40;71.30;;;;;;5035939;28;20049;-82
2021/05/17 06:35:56;;;;;;;0.52;0.13;;;14.40;71.30;;;;;;5004091;28;20039;-80
2021/05/17 06:38:23;;;;;;;0.08;0.00;;;14.50;71.30;;;;;;4996804;28;20038;-81
2021/05/17 06:40:49;;;;;;;0.85;0.22;;;14.50;71.30;;;;;;5009501;28;20029;-80
2021/05/17 06:43:15;;;;;;;5.10;0.20;;;14.50;71.30;;;;;;5008352;28;20048;-83
2021/05/17 06:45:42;;;;;;;1.67;0.20;;;14.50;71.30;;;;;;5007311;28;20034;-82
2021/05/17 06:48:08;;;;;;;0.08;0.05;;;14.50;71.40;;;;;;5010474;28;20037;-82
2021/05/17 06:50:35;;;;;;;3.58;0.05;;;14.50;71.40;;;;;;5012113;28;20390;-80
2021/05/17 06:53:01;;;;;;;9.57;0.22;;;14.50;71.40;;;;;;5007847;28;20042;-82
2021/05/17 06:56:14;;;;;;;0.00;0.00;;;14.50;71.50;;;;;;5006278;28;20030;-84
2021/05/17 06:58:21;;;;;;;3.35;0.35;;;14.50;71.40;;;;;;4998740;28;20398;-82
2021/05/17 07:00:48;;;;;;;;;;;14.50;71.30;;;;;;5011093;28;20038;-80
2021/05/17 07:03:14;;;;;;;0.00;0.00;;;14.50;71.30;;;;;;5004717;28;19917;-82
2021/05/17 07:05:40;;;;;;;4.05;0.15;;;14.50;71.30;;;;;;4993594;28;20060;-82
2021/05/17 07:13:18;;;;;;;1.65;0.22;;;14.70;71.10;;;;;;5014038;28;20052;-83
2021/05/17 07:15:45;;;;;;;0.05;0.03;;;15.00;70.90;;;;;;5010159;28;20037;-82
2021/05/17 07:18:11;;;;;;;0.00;0.00;;;15.20;70.50;;;;;;5011922;28;20049;-84
2021/05/17 07:25:58;;;;;;;0.40;0.17;;;15.70;69.60;;;;;;5009160;28;20403;-82
2021/05/17 07:28:25;;;;;;;0.00;0.00;;;15.70;69.60;;;;;;5013635;28;20026;-82
2021/05/17 07:30:51;;;;;;;0.00;0.00;;;15.70;69.70;;;;;;4996207;28;20029;-82
2021/05/17 07:33:17;;;;;;;0.00;0.00;;;15.60;69.80;;;;;;5031274;28;20043;-83
2021/05/17 07:35:43;;;;;;;0.00;0.00;;;15.60;70.00;;;;;;5007656;28;20030;-82
2021/05/17 07:38:09;;;;;;;1.65;0.40;;;15.50;70.10;;;;;;5007700;28;20034;-82
2021/05/17 07:40:35;;;;;;;0.10;0.00;;;15.40;70.30;;;;;;5007996;28;20038;-82
2021/05/17 07:43:02;;;;;;;0.25;0.15;;;15.40;70.40;;;;;;5012115;28;20491;-82
2021/05/17 07:45:28;;;;;;;1.75;0.25;;;15.30;70.40;;;;;;4995724;28;20034;-82
2021/05/17 07:47:54;;;;;;;0.10;0.00;;;15.50;70.50;;;;;;5001845;28;20046;-82
2021/05/17 07:50:20;;;;;;;0.00;0.00;;;15.60;70.40;;;;;;5033485;28;20034;-82
2021/05/17 07:52:46;;;;;;;0.30;0.10;;;15.70;70.00;;;;;;5032572;28;20052;-81
2021/05/17 07:55:13;;;;;;;19.85;0.70;;;15.70;69.80;;;;;;4999718;28;20494;-82
2021/05/17 07:57:39;;;;;;;1.10;0.30;;;15.70;69.80;;;;;;4996070;28;20034;-81
2021/05/17 08:00:08;;;;;;;0.73;0.00;;;15.70;69.90;;;;;;5012998;28;20040;-82
2021/05/17 08:02:34;;;;;;;3.65;0.38;;;15.80;69.80;;;;;;5010237;28;20026;-82
2021/05/17 08:05:00;;;;;;;1.65;0.25;;;15.90;69.50;;;;;;5011344;28;20037;-82
2021/05/17 08:07:26;;;;;;;0.00;0.00;;;16.00;69.30;;;;;;5011464;28;20037;-81
2021/05/17 08:09:54;;;;;;;0.40;0.25;;;16.00;69.20;;;;;;5011359;28;20036;-82
2021/05/17 08:12:20;;;;;;;0.85;0.20;;;16.10;69.20;;;;;;5013292;28;20455;-82
2021/05/17 08:14:46;;;;;;;0.03;0.03;;;16.10;69.10;;;;;;5009709;28;20045;-82
2021/05/17 08:17:12;;;;;;;1.95;0.20;;;16.10;69.00;;;;;;5010959;28;20380;-82
2021/05/17 08:19:39;;;;;;;0.65;0.20;;;16.10;69.00;;;;;;5010965;28;20038;-82
2021/05/17 08:22:05;;;;;;;0.32;0.10;;;16.00;69.00;;;;;;5010099;28;20399;-82
2021/05/17 08:24:31;;;;;;;0.20;0.00;;;16.00;69.10;;;;;;5011153;28;20038;-82
2021/05/17 08:26:57;;;;;;;0.00;0.00;;;16.00;69.20;;;;;;5010360;28;20372;-82
2021/05/17 08:29:24;;;;;;;0.08;0.00;;;15.90;69.10;;;;;;5029350;28;20045;-82
2021/05/17 08:31:51;;;;;;;0.47;0.20;;;16.00;69.20;;;;;;4986035;28;20475;-81
2021/05/17 08:34:17;;;;;;;0.47;0.13;;;16.00;69.20;;;;;;5009519;28;20045;-82
2021/05/17 08:36:44;;;;;;;0.00;0.00;;;16.20;68.90;;;;;;5011247;28;20040;-82
2021/05/17 08:39:10;;;;;;;0.00;0.00;;;16.50;68.40;;;;;;5012411;28;20094;-82
2021/05/17 08:41:38;;;;;;;1.50;0.22;;;16.70;68.20;;;;;;5009655;28;20056;-82
2021/05/17 08:44:04;;;;;;;1.65;0.10;;;16.90;67.50;;;;;;5009739;28;20034;-82
2021/05/17 08:46:30;;;;;;;1.27;0.00;;;17.30;67.10;;;;;;5009187;28;20045;-82
2021/05/17 08:48:57;;;;;;;3.40;0.30;;;17.50;66.50;;;;;;5008919;28;20037;-82
2021/05/17 08:51:24;;;;;;;5.50;0.00;;;17.70;66.20;;;;;;5012535;28;20026;-83
2021/05/17 08:53:51;;;;;;;0.10;0.10;;;17.70;66.00;;;;;;5037724;28;20054;-82
2021/05/17 08:56:20;;;;;;;5.25;0.10;;;17.70;66.00;;;;;;5009511;28;20022;-82
2021/05/17 08:58:47;;;;;;;0.32;0.10;;;17.70;66.20;;;;;;5010903;28;20029;-82
2021/05/17 09:01:13;;;;;;;0.20;0.00;;;17.60;66.40;;;;;;5009181;28;20523;-83
2021/05/17 09:03:39;;;;;;;0.20;0.00;;;17.60;66.40;;;;;;5011247;28;20029;-82
2021/05/17 09:06:06;;;;;;;0.40;0.03;;;17.60;66.40;;;;;;5028988;28;20471;-83
2021/05/17 09:08:40;;;;;;;0.00;0.00;;;17.50;66.40;;;;;;5005384;28;20033;-82
2021/05/17 09:11:06;;;;;;;3.15;0.10;;;17.50;66.60;;;;;;5009345;28;20037;-83
2021/05/17 09:13:32;;;;;;;0.00;0.00;;;17.50;66.50;;;;;;5009312;28;20037;-83
2021/05/17 09:15:59;;;;;;;0.28;0.05;;;17.50;66.40;;;;;;5008874;28;20043;-82
2021/05/17 09:18:30;;;;;;;0.00;0.00;;;17.50;66.30;;;;;;5012205;28;20037;-82
2021/05/17 09:21:05;;;;;;;1.30;0.20;;;17.50;66.30;;;;;;5010374;28;20030;-82
2021/05/17 09:23:35;;;;;;;0.10;0.00;;;17.50;66.20;;;;;;4990370;28;20037;-82
2021/05/17 09:26:14;;;;;;;2.05;0.10;;;17.70;66.00;;;;;;5010374;28;20025;-82
2021/05/17 09:28:46;;;;;;;2.72;0.20;;;17.90;65.40;;;;;;5003125;28;20030;-81
2021/05/17 09:31:19;;;;;;;2.97;0.20;;;18.00;64.90;;;;;;5007421;28;20061;-81
2021/05/17 09:34:04;;;;;;;1.55;0.17;;;17.90;64.60;;;;;;4991453;28;20049;-81
2021/05/17 09:36:37;;;;;;;0.00;0.00;;;17.80;64.70;;;;;;5006942;28;20038;-81
2021/05/17 09:39:15;;;;;;;0.00;0.00;;;17.80;64.80;;;;;;5035654;28;20034;-80
2021/05/17 09:41:41;;;;;;;0.50;0.10;;;17.70;64.70;;;;;;4994983;28;20037;-81
2021/05/17 09:44:08;;;;;;;0.30;0.08;;;17.60;64.80;;;;;;5013347;28;20026;-80
2021/05/17 09:47:06;;;;;;;0.00;0.00;;;17.60;65.00;;;;;;5012873;28;20041;-86
2021/05/17 09:49:42;;;;;;;1.65;0.05;;;17.60;65.00;;;;;;5012906;28;20033;-88
2021/05/17 09:52:11;;;;;;;0.00;0.00;;;17.90;64.50;;;;;;5011259;28;20042;-88
2021/05/17 09:54:51;;;;;;;2.38;0.10;;;18.10;63.90;;;;;;5044232;28;20038;-91
2021/05/17 09:57:18;;;;;;;0.00;0.00;;;18.30;63.60;;;;;;5011184;28;20065;-88
2021/05/17 09:59:46;;;;;;;0.40;0.00;;;18.50;63.30;;;;;;4978159;28;20395;-87
2021/05/17 10:02:32;;;;;;;0.00;0.00;;;18.60;62.90;;;;;;5006329;28;20101;-79
2021/05/17 10:05:08;;;;;;;0.57;0.20;;;18.80;62.70;;;;;;4991898;28;20034;-80
2021/05/17 10:07:34;;;;;;;0.00;0.00;;;19.00;62.20;;;;;;5011862;28;20034;-78
2021/05/17 10:10:00;;;;;;;0.05;0.00;;;19.20;61.80;;;;;;5011785;28;20022;-80
2021/05/17 10:12:27;;;;;;;0.15;0.05;;;19.40;61.60;;;;;;5012817;28;20034;-80
2021/05/17 10:14:53;;;;;;;0.00;0.00;;;19.60;61.20;;;;;;5010707;28;20550;-81
2021/05/17 10:17:20;;;;;;;2.83;0.13;;;19.70;60.80;;;;;;5012413;28;20030;-78
2021/05/17 10:19:46;;;;;;;0.00;0.00;;;19.90;60.50;;;;;;5006556;28;20029;-81
2021/05/17 10:22:12;;;;;;;0.00;0.00;;;20.00;60.10;;;;;;5011142;28;20403;-81
2021/05/17 10:24:38;;;;;;;0.08;0.08;;;20.20;59.70;;;;;;4993143;28;20041;-81
2021/05/17 10:27:05;;;;;;;0.00;0.00;;;20.30;59.50;;;;;;5024702;28;20042;-78
2021/05/17 10:29:32;;;;;;;0.00;0.00;;;20.40;59.20;;;;;;5011515;28;20022;-80
2021/05/17 10:31:59;;;;;;;0.00;0.00;;;20.40;59.20;;;;;;5009955;28;20034;-80
2021/05/17 10:34:25;;;;;;;0.28;0.00;;;20.30;59.20;;;;;;5009563;28;20390;-80
2021/05/17 10:37:02;;;;;;;0.00;0.00;;;20.30;59.10;;;;;;4994782;28;20052;-80
2021/05/17 10:39:40;;;;;;;0.00;0.00;;;20.20;58.90;;;;;;5010311;28;20030;-81
2021/05/17 10:48:17;;;;;;;0.20;0.00;;;19.80;59.70;;;;;;5011899;28;20051;-81
2021/05/17 10:50:44;;;;;;;1.27;0.30;;;20.00;59.40;;;;;;5036546;28;20037;-81
2021/05/17 10:53:42;;;;;;;2.83;0.22;;;20.20;58.90;;;;;;5024683;28;20057;-83
2021/05/17 10:56:13;;;;;;;0.15;0.05;;;20.20;58.70;;;;;;5012682;28;20025;-84
2021/05/17 11:01:54;;;;;;;4.85;0.22;;;19.60;59.70;;;;;;5012286;28;20077;-83
2021/05/17 11:04:33;;;;;;;0.98;0.20;;;19.20;60.50;;;;;;5011918;28;20033;-83
2021/05/17 11:07:20;;;;;;;0.65;0.20;;;18.80;61.40;;;;;;4996945;28;20049;-83
2021/05/17 11:09:56;;;;;;;0.00;0.00;;;18.50;62.00;;;;;;5010881;28;20048;-83
2021/05/17 11:12:28;;;;;;;0.00;0.00;;;18.40;62.40;;;;;;5013656;28;20052;-83
2021/05/17 11:15:18;;;;;;;1.15;0.17;;;18.50;62.30;;;;;;5011663;28;20049;-82
2021/05/17 11:18:16;;;;;;;0.43;0.05;;;18.80;62.20;;;;;;5022850;28;20423;-83
2021/05/17 11:20:50;;;;;;;0.00;0.00;;;19.00;61.70;;;;;;5010050;28;20034;-82
2021/05/17 11:23:23;;;;;;;0.00;0.00;;;19.40;61.20;;;;;;5008646;28;20487;-83
2021/05/17 11:26:02;;;;;;;0.00;0.00;;;19.60;60.80;;;;;;5011138;28;20041;-82
2021/05/17 11:28:34;;;;;;;0.40;0.10;;;19.70;60.60;;;;;;5009391;28;20030;-81
2021/05/17 11:31:04;;;;;;;2.30;0.20;;;19.70;60.60;;;;;;4996522;28;20038;-82
2021/05/17 11:33:46;;;;;;;0.15;0.00;;;19.60;60.70;;;;;;4995607;28;20049;-81
2021/05/17 11:36:12;;;;;;;0.00;0.00;;;19.50;60.90;;;;;;5012394;28;20026;-83
2021/05/17 11:39:14;;;;;;;1.17;0.05;;;19.30;61.00;;;;;;5011064;28;20030;-80
2021/05/17 11:41:49;;;;;;;0.28;0.10;;;19.00;61.50;;;;;;5009641;28;20033;-82
2021/05/17 11:44:23;;;;;;;3.65;0.10;;;18.60;62.30;;;;;;5010995;28;20026;-82
2021/05/17 11:47:14;;;;;;;0.00;0.00;;;18.30;63.00;;;;;;5009572;28;20106;-81
2021/05/17 11:49:42;;;;;;;0.00;0.00;;;18.10;63.50;;;;;;5009146;28;20510;-84
2021/05/17 11:52:12;;;;;;;0.00;0.00;;;18.30;63.70;;;;;;5009759;28;20057;-86
2021/05/17 11:54:51;;;;;;;2.28;0.20;;;18.40;63.30;;;;;;4994527;28;20034;-83
2021/05/17 11:57:26;;;;;;;0.00;0.00;;;18.70;63.00;;;;;;5010986;28;20636;-82
2021/05/17 11:59:52;;;;;;;0.93;0.00;;;19.10;62.50;;;;;;5011154;28;20034;-82
2021/05/17 12:02:18;;;;;;;0.03;0.00;;;19.30;62.00;;;;;;5010529;28;20037;-81
2021/05/17 12:04:45;;;;;;;0.00;0.00;;;19.60;61.60;;;;;;5010127;28;20053;-82
2021/05/17 12:07:16;;;;;;;0.10;0.10;;;19.80;61.30;;;;;;5008264;28;20031;-81
2021/05/17 12:09:49;;;;;;;0.08;0.00;;;19.80;61.10;;;;;;4993288;28;20033;-82
2021/05/17 12:12:25;;;;;;;0.13;0.08;;;19.80;61.10;;;;;;5011715;28;20031;-82
2021/05/17 12:14:59;;;;;;;0.00;0.00;;;19.70;61.30;;;;;;5007561;28;20399;-81
2021/05/17 12:17:27;;;;;;;0.00;0.00;;;19.50;61.50;;;;;;4974551;28;20035;-82
2021/05/17 12:19:57;;;;;;;0.20;0.10;;;19.40;61.70;;;;;;5033049;28;20374;-83
2021/05/17 12:22:34;;;;;;;0.22;0.10;;;19.20;62.00;;;;;;5009416;28;20029;-82
2021/05/17 12:25:05;;;;;;;0.47;0.05;;;19.00;62.50;;;;;;4993996;28;20419;-82
2021/05/17 12:27:31;;;;;;;0.20;0.15;;;18.90;62.80;;;;;;4994517;28;20057;-82
2021/05/17 12:30:00;;;;;;;0.00;0.00;;;19.00;63.00;;;;;;5010711;28;20038;-81
2021/05/17 12:32:32;;;;;;;0.00;0.00;;;19.10;62.80;;;;;;5008542;28;20030;-81
2021/05/17 12:35:00;;;;;;;0.20;0.10;;;19.20;62.70;;;;;;5010571;28;20034;-81
2021/05/17 12:37:29;;;;;;;0.82;0.20;;;19.40;62.40;;;;;;5009131;28;20029;-81
2021/05/17 12:40:34;;;;;;;4.95;0.28;;;19.70;62.10;;;;;;5009039;28;20041;-82
2021/05/17 12:43:08;;;;;;;1.08;0.00;;;19.80;61.80;;;;;;5013436;28;20056;-81
2021/05/17 12:45:36;;;;;;;0.22;0.00;;;19.80;61.50;;;;;;4990317;28;20045;-83
2021/05/17 12:48:27;;;;;;;0.00;0.00;;;19.80;61.60;;;;;;5003599;28;20375;-82
2021/05/17 12:50:55;;;;;;;0.20;0.00;;;19.60;61.90;;;;;;5023595;28;20052;-83
2021/05/17 12:53:29;;;;;;;2.22;0.17;;;19.20;62.50;;;;;;4991563;28;20053;-81
2021/05/17 12:55:59;;;;;;;1.55;0.20;;;19.00;63.10;;;;;;4984758;28;20486;-82
2021/05/17 12:58:31;;;;;;;0.00;0.00;;;18.90;63.30;;;;;;5011879;28;20089;-81
2021/05/17 13:00:59;;;;;;;0.00;0.00;;;19.00;63.40;;;;;;4995815;28;20029;-82
2021/05/17 13:03:25;;;;;;;0.40;0.10;;;19.10;63.20;;;;;;5004877;28;20038;-81
2021/05/17 13:05:52;;;;;;;0.00;0.00;;;19.10;63.00;;;;;;5023811;28;20037;-82
2021/05/17 13:08:18;;;;;;;0.00;0.00;;;19.10;63.00;;;;;;5024702;28;20036;-82
2021/05/17 13:11:04;;;;;;;0.00;0.00;;;19.20;63.00;;;;;;4975112;28;20038;-82
2021/05/17 13:13:49;;;;;;;0.00;0.00;;;19.30;62.90;;;;;;5007538;28;20450;-81
2021/05/17 13:16:23;;;;;;;0.10;0.08;;;19.30;62.60;;;;;;5027439;28;20030;-81
2021/05/17 13:18:53;;;;;;;0.00;0.00;;;19.40;62.40;;;;;;5015434;28;20033;-81
2021/05/17 13:21:32;;;;;;;0.52;0.00;;;19.40;62.30;;;;;;5018262;28;20022;-82
2021/05/17 13:32:13;;;;;;;0.13;0.13;;;19.70;61.70;;;;;;5014921;28;20514;-81
2021/05/17 13:34:41;;;;;;;4.25;0.25;;;19.80;61.50;;;;;;5012990;28;20040;-81
2021/05/17 13:37:07;;;;;;;5.20;0.08;;;19.80;61.40;;;;;;5014889;28;20399;-82
2021/05/17 13:39:33;;;;;;;3.47;0.28;;;19.80;61.30;;;;;;5015850;28;20030;-82